< < Back
Terminal Aerodrome Forecast


Current Version              Previous Versions:   1  2  3  4  5  6  7  8  9  

Terminal Aerodrome Forecast

633
FTUS42 KCAE 220500
TAFCAE
TAF
KCAE 220539Z 2206/2306 VRB03KT P6SM SCT200
      TEMPO 2208/2212 4SM BR
     FM221600 28007KT P6SM FEW060 SCT200
     FM230000 VRB03KT P6SM SCT200=

Latest METAR

589
SAUS80 KWBC 220800
MTRCAE
METAR KCAE 220756Z 22003KT 10SM CLR 24/21 A3002 RMK AO2 SLP161
T02440206


USA.gov is the U.S. government's official web portal to all federal, state and local government web resources and services.